Ada, West Virginia
Current Conditions -  °F | °C
As of 11:52 PM on Friday 21 Nov 2014 (Local Time) from KBLF Reporting Station
Clear Clear  
Wind Chill: 29°   Ceiling: Unl
Heat Index: 29°   Visibility: 10mi
Dew Point:   Wind: 0mph
Humidity: 30%   Direction: NA
Pressure: 30.39"   Gusts: NA
Location:  37.2994°N, 81.226°W
Report Text: KBLF 220452Z AUTO 00000KT 10SM CLR M02/M17 A3039 RMK AO2 SLP313 T10171172 400281067
Loading
Personal Weather Stations






























Interactive Weather Map New forecast layout! Learn more

10-Day Weather Forecast

Advertisements
Track Severe Weather on mobile